createdAt,value
2022-07-29T00:00:19.070Z,20.27
2022-07-29T00:02:46.222Z,20.28
2022-07-29T00:05:19.369Z,20.28
2022-07-29T00:07:47.151Z,20.31
2022-07-29T00:10:14.186Z,20.20
2022-07-29T00:12:41.353Z,20.29
2022-07-29T00:15:09.091Z,20.32
2022-07-29T00:17:36.193Z,20.33
2022-07-29T00:20:04.481Z,20.38
2022-07-29T00:22:31.601Z,20.35
2022-07-29T00:25:01.214Z,20.32
2022-07-29T00:27:28.328Z,20.32
2022-07-29T00:29:55.514Z,20.27
2022-07-29T00:32:22.672Z,20.26
2022-07-29T00:35:09.179Z,20.30
2022-07-29T00:37:37.114Z,20.37
2022-07-29T00:40:04.754Z,20.34
2022-07-29T00:42:31.847Z,20.33
2022-07-29T00:44:58.802Z,20.15
2022-07-29T00:47:25.798Z,20.33
2022-07-29T00:49:53.470Z,20.28
2022-07-29T00:52:21.303Z,20.27
2022-07-29T00:54:48.381Z,20.25
2022-07-29T00:57:15.549Z,20.29
2022-07-29T00:59:42.813Z,20.27
2022-07-29T01:02:10.085Z,20.29
2022-07-29T01:04:37.314Z,20.22
2022-07-29T01:07:05.290Z,20.22
2022-07-29T01:09:43.095Z,20.17
2022-07-29T01:12:27.371Z,20.17
2022-07-29T01:14:56.340Z,20.11
2022-07-29T01:17:32.322Z,20.10
2022-07-29T01:20:18.716Z,20.08
2022-07-29T01:23:12.023Z,20.10
2022-07-29T01:26:20.471Z,20.10
2022-07-29T01:29:00.730Z,20.08
2022-07-29T01:31:59.181Z,20.14
2022-07-29T01:34:42.130Z,20.16
2022-07-29T01:37:33.382Z,20.10
2022-07-29T01:40:02.893Z,20.05
2022-07-29T01:42:43.101Z,20.03
2022-07-29T01:45:17.898Z,20.05
2022-07-29T01:48:00.321Z,19.99
2022-07-29T01:50:41.125Z,20.02
2022-07-29T01:53:11.440Z,20.00
2022-07-29T01:55:43.545Z,20.07
2022-07-29T01:58:13.223Z,20.13
2022-07-29T02:00:43.848Z,20.07
2022-07-29T02:03:13.961Z,20.00
2022-07-29T02:05:44.854Z,19.96
2022-07-29T02:08:14.244Z,19.92
2022-07-29T02:10:46.997Z,19.84
2022-07-29T02:13:21.543Z,19.80
2022-07-29T02:15:51.378Z,19.74
2022-07-29T02:18:25.002Z,19.70
2022-07-29T02:20:59.476Z,19.69
2022-07-29T02:23:50.337Z,19.69
2022-07-29T02:26:21.372Z,19.65
2022-07-29T02:28:55.347Z,19.62
2022-07-29T02:31:27.334Z,19.50
2022-07-29T02:33:55.690Z,19.38
2022-07-29T02:36:24.625Z,19.43
2022-07-29T02:38:54.339Z,19.47
2022-07-29T02:41:27.050Z,19.42
2022-07-29T02:43:57.978Z,19.37
2022-07-29T02:46:33.800Z,19.17
2022-07-29T02:49:16.658Z,19.16
2022-07-29T02:51:47.090Z,19.08
2022-07-29T02:54:24.785Z,19.07
2022-07-29T02:56:56.330Z,19.06
2022-07-29T02:59:27.854Z,19.06
2022-07-29T03:01:56.481Z,19.05
2022-07-29T03:04:26.742Z,19.05
2022-07-29T03:06:54.632Z,19.06
2022-07-29T03:09:24.012Z,18.99
2022-07-29T03:11:51.236Z,18.95
2022-07-29T03:14:25.366Z,18.98
2022-07-29T03:16:53.298Z,19.08
2022-07-29T03:19:21.420Z,19.05
2022-07-29T03:21:49.122Z,18.95
2022-07-29T03:24:30.765Z,18.94
2022-07-29T03:26:58.752Z,19.05
2022-07-29T03:29:33.021Z,19.06
2022-07-29T03:32:07.384Z,19.06
2022-07-29T03:34:39.067Z,19.03
2022-07-29T03:37:07.304Z,19.05
2022-07-29T03:39:39.459Z,19.05
2022-07-29T03:42:09.236Z,19.11
2022-07-29T03:44:39.511Z,19.12
2022-07-29T03:47:09.027Z,19.17
2022-07-29T03:49:41.782Z,19.13
2022-07-29T03:52:09.843Z,19.14
2022-07-29T03:54:37.380Z,19.18
2022-07-29T03:57:07.020Z,19.19
2022-07-29T03:59:34.884Z,19.20
2022-07-29T04:02:04.299Z,19.17
2022-07-29T04:04:33.202Z,19.15
2022-07-29T04:07:01.549Z,19.21
2022-07-29T04:09:28.726Z,19.12
2022-07-29T04:12:03.209Z,19.21
2022-07-29T04:14:32.920Z,19.19
2022-07-29T04:17:06.267Z,19.22
2022-07-29T04:19:33.518Z,19.23
2022-07-29T04:22:01.933Z,19.22
2022-07-29T04:24:29.290Z,19.17
2022-07-29T04:26:58.464Z,19.23
2022-07-29T04:29:25.662Z,19.16
2022-07-29T04:31:52.802Z,19.18
2022-07-29T04:34:28.681Z,19.22
2022-07-29T04:36:56.378Z,19.26
2022-07-29T04:39:29.569Z,19.30
2022-07-29T04:41:57.561Z,19.29
2022-07-29T04:44:28.794Z,19.36
2022-07-29T04:46:57.672Z,19.35
2022-07-29T04:49:25.443Z,19.41
2022-07-29T04:51:52.511Z,19.43
2022-07-29T04:54:19.881Z,19.45
2022-07-29T04:56:47.382Z,19.46
2022-07-29T04:59:18.017Z,19.47
2022-07-29T05:01:45.174Z,19.51
2022-07-29T05:04:12.613Z,19.54
2022-07-29T05:06:40.253Z,19.58
2022-07-29T05:09:08.800Z,19.61
2022-07-29T05:11:35.986Z,19.69
2022-07-29T05:14:03.161Z,19.65
2022-07-29T05:16:30.510Z,19.77
2022-07-29T05:18:58.015Z,19.78
2022-07-29T05:21:25.178Z,19.80
2022-07-29T05:23:52.372Z,19.80
2022-07-29T05:26:23.977Z,19.73
2022-07-29T05:28:51.533Z,19.84
2022-07-29T05:31:18.729Z,19.87
2022-07-29T05:33:46.130Z,19.82
2022-07-29T05:36:13.346Z,19.84
2022-07-29T05:38:45.924Z,19.87
2022-07-29T05:41:12.898Z,19.92
2022-07-29T05:43:39.905Z,19.98
2022-07-29T05:46:07.012Z,20.07
2022-07-29T05:48:34.210Z,20.18
2022-07-29T05:51:01.592Z,20.23
2022-07-29T05:53:29.918Z,20.24
2022-07-29T05:56:06.748Z,20.18
2022-07-29T05:58:34.214Z,20.26
2022-07-29T06:01:01.567Z,20.24
2022-07-29T06:03:32.620Z,20.30
2022-07-29T06:05:59.625Z,20.42
2022-07-29T06:08:26.790Z,20.50
2022-07-29T06:10:54.081Z,20.57
2022-07-29T06:13:21.136Z,20.65
2022-07-29T06:15:53.331Z,20.66
2022-07-29T06:18:21.717Z,20.63
2022-07-29T06:20:49.085Z,20.66
2022-07-29T06:23:20.617Z,20.60
2022-07-29T06:25:47.860Z,20.54
2022-07-29T06:28:19.006Z,20.48
2022-07-29T06:30:47.454Z,20.45
2022-07-29T06:33:19.647Z,20.38
2022-07-29T06:35:53.302Z,20.38
2022-07-29T06:38:33.844Z,20.27
2022-07-29T06:41:01.959Z,20.05
2022-07-29T06:43:50.162Z,20.12
2022-07-29T06:46:24.462Z,20.16
2022-07-29T06:48:53.221Z,20.17
2022-07-29T06:51:22.443Z,20.21
2022-07-29T06:53:59.978Z,20.27
2022-07-29T06:56:32.447Z,20.29
2022-07-29T06:59:15.771Z,20.17
2022-07-29T07:01:50.839Z,20.10
2022-07-29T07:04:25.447Z,20.22
2022-07-29T07:06:56.495Z,20.25
2022-07-29T07:09:23.672Z,20.17
2022-07-29T07:11:50.884Z,20.30
2022-07-29T07:14:18.296Z,20.50
2022-07-29T07:16:52.713Z,20.69
2022-07-29T07:19:25.457Z,20.93
2022-07-29T07:21:53.799Z,21.00
2022-07-29T07:24:22.772Z,21.04
2022-07-29T07:26:55.351Z,21.01
2022-07-29T07:29:26.278Z,21.04
2022-07-29T07:31:58.840Z,21.09
2022-07-29T07:34:28.271Z,21.17
2022-07-29T07:36:57.097Z,21.16
2022-07-29T07:39:24.391Z,21.18
2022-07-29T07:41:51.513Z,21.16
2022-07-29T07:44:23.689Z,21.13
2022-07-29T07:46:51.057Z,21.07
2022-07-29T07:49:18.208Z,20.91
2022-07-29T07:51:50.625Z,20.87
2022-07-29T07:54:21.396Z,20.74
2022-07-29T07:56:53.195Z,20.69
2022-07-29T07:59:24.582Z,20.64
2022-07-29T08:01:56.029Z,20.73
2022-07-29T08:04:28.117Z,20.62
2022-07-29T08:06:57.666Z,20.45
2022-07-29T08:09:29.619Z,20.37
2022-07-29T08:12:00.230Z,20.12
2022-07-29T08:14:27.434Z,20.13
2022-07-29T08:16:54.768Z,20.19
2022-07-29T08:19:21.999Z,20.28
2022-07-29T08:21:49.076Z,20.32
2022-07-29T08:24:34.669Z,20.42
2022-07-29T08:27:01.817Z,20.32
2022-07-29T08:29:29.269Z,20.30
2022-07-29T08:31:56.969Z,20.29
2022-07-29T08:34:27.028Z,20.21
2022-07-29T08:36:56.615Z,20.03
2022-07-29T08:39:31.360Z,20.32
2022-07-29T08:41:58.838Z,20.51
2022-07-29T08:44:30.750Z,20.74
2022-07-29T08:46:58.501Z,20.91
2022-07-29T08:49:36.058Z,21.10
2022-07-29T08:52:03.593Z,21.26
2022-07-29T08:54:31.677Z,21.44
2022-07-29T08:57:00.545Z,21.48
2022-07-29T08:59:28.920Z,21.56
2022-07-29T09:02:01.122Z,21.58
2022-07-29T09:04:35.217Z,21.74
2022-07-29T09:07:05.233Z,21.82
2022-07-29T09:09:34.602Z,21.96
2022-07-29T09:12:02.082Z,22.00
2022-07-29T09:14:29.138Z,22.08
2022-07-29T09:17:03.800Z,22.07
2022-07-29T09:19:32.858Z,22.08
2022-07-29T09:22:03.745Z,22.19
2022-07-29T09:24:56.218Z,22.28
2022-07-29T09:27:27.472Z,22.40
2022-07-29T09:30:11.559Z,22.61
2022-07-29T09:33:00.945Z,22.64
2022-07-29T09:35:29.045Z,22.82
2022-07-29T09:37:56.487Z,22.87
2022-07-29T09:40:26.272Z,22.88
2022-07-29T09:42:57.789Z,22.85
2022-07-29T09:45:29.797Z,22.94
2022-07-29T09:48:01.167Z,22.95
2022-07-29T09:50:42.016Z,22.86
2022-07-29T09:53:12.019Z,23.01
2022-07-29T09:55:52.008Z,22.82
2022-07-29T09:58:21.686Z,22.88
2022-07-29T10:00:50.545Z,22.91
2022-07-29T10:03:18.361Z,22.89
2022-07-29T10:05:47.204Z,22.98
2022-07-29T10:08:14.429Z,23.03
2022-07-29T10:10:43.839Z,23.17
2022-07-29T10:13:17.131Z,23.26
2022-07-29T10:15:46.661Z,23.36
2022-07-29T10:18:18.068Z,23.43
2022-07-29T10:20:46.005Z,23.58
2022-07-29T10:23:13.568Z,23.65
2022-07-29T10:25:45.913Z,23.81
2022-07-29T10:28:16.513Z,23.79
2022-07-29T10:30:46.188Z,23.88
2022-07-29T10:33:16.674Z,23.98
2022-07-29T10:36:02.937Z,23.95
2022-07-29T10:38:30.172Z,24.00
2022-07-29T10:41:32.297Z,24.14
2022-07-29T10:44:19.309Z,23.99
2022-07-29T10:46:51.423Z,23.98
2022-07-29T10:49:20.234Z,24.03
2022-07-29T10:51:51.394Z,23.86
2022-07-29T10:54:19.573Z,23.99
2022-07-29T10:56:47.761Z,23.84
2022-07-29T10:59:21.554Z,23.69
2022-07-29T11:01:53.521Z,23.68
2022-07-29T11:04:47.086Z,23.78
2022-07-29T11:07:17.139Z,23.83
2022-07-29T11:09:46.370Z,23.88
2022-07-29T11:12:39.260Z,23.93
2022-07-29T11:15:17.950Z,24.03
2022-07-29T11:18:01.483Z,24.10
2022-07-29T11:20:49.897Z,24.18
2022-07-29T11:23:33.945Z,24.24
2022-07-29T11:26:10.939Z,24.31
2022-07-29T11:29:01.843Z,24.29
2022-07-29T11:31:45.670Z,24.35
2022-07-29T11:34:30.071Z,24.22
2022-07-29T11:37:13.565Z,24.44
2022-07-29T11:39:41.611Z,24.49
2022-07-29T11:42:28.367Z,24.63
2022-07-29T11:45:08.900Z,24.76
2022-07-29T11:47:56.045Z,24.79
2022-07-29T11:50:37.658Z,24.81
2022-07-29T11:53:17.465Z,25.00
2022-07-29T11:56:04.396Z,25.20
2022-07-29T11:58:31.820Z,25.21
2022-07-29T12:01:18.424Z,25.38
2022-07-29T12:03:48.046Z,25.41
2022-07-29T12:06:34.939Z,25.15
2022-07-29T12:09:11.220Z,25.19
2022-07-29T12:11:41.487Z,25.06
2022-07-29T12:14:31.824Z,25.10
2022-07-29T12:17:32.261Z,25.15
2022-07-29T12:20:07.804Z,25.21
2022-07-29T12:22:38.897Z,25.15
2022-07-29T12:25:32.519Z,25.21
2022-07-29T12:28:07.459Z,25.43
2022-07-29T12:30:49.496Z,25.16
2022-07-29T12:33:25.243Z,25.32
2022-07-29T12:36:06.730Z,25.45
2022-07-29T12:38:41.125Z,25.54
2022-07-29T12:41:08.509Z,25.71
2022-07-29T12:43:54.987Z,25.86
2022-07-29T12:46:22.619Z,25.92
2022-07-29T12:48:55.717Z,25.87
2022-07-29T12:51:34.487Z,25.85
2022-07-29T12:54:20.145Z,25.81
2022-07-29T12:56:47.525Z,25.71
2022-07-29T12:59:22.793Z,25.69
2022-07-29T13:01:53.399Z,25.74
2022-07-29T13:04:30.454Z,25.77
2022-07-29T13:07:08.018Z,25.94
2022-07-29T13:09:48.708Z,25.77
2022-07-29T13:12:16.202Z,25.96
2022-07-29T13:14:45.826Z,26.02
2022-07-29T13:17:17.947Z,26.15
2022-07-29T13:19:53.867Z,26.21
2022-07-29T13:22:22.001Z,26.25
2022-07-29T13:25:02.401Z,26.38
2022-07-29T13:27:35.301Z,26.47
2022-07-29T13:30:07.579Z,26.41
2022-07-29T13:32:38.559Z,26.46
2022-07-29T13:35:08.183Z,26.48
2022-07-29T13:37:38.990Z,26.52
2022-07-29T13:40:24.955Z,26.34
2022-07-29T13:42:52.277Z,26.40
2022-07-29T13:45:19.896Z,26.35
2022-07-29T13:47:49.804Z,26.50
2022-07-29T13:50:35.148Z,26.60
2022-07-29T13:53:02.405Z,26.69
2022-07-29T13:55:34.577Z,26.70
2022-07-29T13:58:01.664Z,26.57
2022-07-29T14:00:32.103Z,26.54
2022-07-29T14:03:02.005Z,26.33
2022-07-29T14:05:40.902Z,26.59
2022-07-29T14:08:08.189Z,26.85
2022-07-29T14:10:35.910Z,26.92
2022-07-29T14:13:05.906Z,27.00
2022-07-29T14:16:07.908Z,27.27
2022-07-29T14:18:35.110Z,27.43
2022-07-29T14:21:20.713Z,27.30
2022-07-29T14:23:48.592Z,27.30
2022-07-29T14:26:28.090Z,26.84
2022-07-29T14:28:55.638Z,26.57
2022-07-29T14:31:22.999Z,26.30
2022-07-29T14:34:02.832Z,26.17
2022-07-29T14:36:32.829Z,26.25
2022-07-29T14:39:00.089Z,26.48
2022-07-29T14:41:29.099Z,26.39
2022-07-29T14:43:56.424Z,26.51
2022-07-29T14:46:23.962Z,26.89
2022-07-29T14:48:51.153Z,27.01
2022-07-29T14:51:18.446Z,27.07
2022-07-29T14:53:45.665Z,27.32
2022-07-29T14:56:35.475Z,27.38
2022-07-29T14:59:07.085Z,27.44
2022-07-29T15:01:37.574Z,27.31
2022-07-29T15:04:07.174Z,27.42
2022-07-29T15:06:38.803Z,27.64
2022-07-29T15:09:11.115Z,27.85
2022-07-29T15:11:42.108Z,27.87
2022-07-29T15:14:09.490Z,28.02
2022-07-29T15:16:38.242Z,28.35
2022-07-29T15:19:15.769Z,28.80
2022-07-29T15:21:48.381Z,28.97
2022-07-29T15:24:18.018Z,29.13
2022-07-29T15:26:45.636Z,28.93
2022-07-29T15:29:18.330Z,29.11
2022-07-29T15:31:45.585Z,29.36
2022-07-29T15:34:13.021Z,29.33
2022-07-29T15:36:56.297Z,29.46
2022-07-29T15:39:23.943Z,29.64
2022-07-29T15:41:55.668Z,30.07
2022-07-29T15:44:27.383Z,30.21
2022-07-29T15:47:03.601Z,29.95
2022-07-29T15:49:46.633Z,29.04
2022-07-29T15:52:26.120Z,29.24
2022-07-29T15:54:57.675Z,29.38
2022-07-29T15:57:25.762Z,29.07
2022-07-29T15:59:53.326Z,28.66
2022-07-29T16:02:22.966Z,28.49
2022-07-29T16:04:54.075Z,28.25
2022-07-29T16:07:21.386Z,28.02
2022-07-29T16:09:53.251Z,27.83
2022-07-29T16:12:21.061Z,27.58
2022-07-29T16:14:49.380Z,27.45
2022-07-29T16:17:16.973Z,27.32
2022-07-29T16:19:45.347Z,27.17
2022-07-29T16:22:13.213Z,27.10
2022-07-29T16:24:40.489Z,26.93
2022-07-29T16:27:08.181Z,26.70
2022-07-29T16:29:38.101Z,26.58
2022-07-29T16:32:06.591Z,26.35
2022-07-29T16:34:36.034Z,26.29
2022-07-29T16:37:04.387Z,26.21
2022-07-29T16:39:32.689Z,26.17
2022-07-29T16:42:07.590Z,26.28
2022-07-29T16:44:35.373Z,26.19
2022-07-29T16:47:03.604Z,26.32
2022-07-29T16:49:34.961Z,26.40
2022-07-29T16:52:02.321Z,26.49
2022-07-29T16:54:29.586Z,26.35
2022-07-29T16:56:57.355Z,26.38
2022-07-29T16:59:24.899Z,26.33
2022-07-29T17:01:52.373Z,26.24
2022-07-29T17:04:19.777Z,26.22
2022-07-29T17:06:49.473Z,26.15
2022-07-29T17:09:16.677Z,26.08
2022-07-29T17:11:55.072Z,26.16
2022-07-29T17:14:28.053Z,26.13
2022-07-29T17:17:01.167Z,26.11
2022-07-29T17:19:30.377Z,26.05
2022-07-29T17:22:08.473Z,26.09
2022-07-29T17:24:38.825Z,25.94
2022-07-29T17:27:06.696Z,25.84
2022-07-29T17:29:34.944Z,25.89
2022-07-29T17:32:12.736Z,25.75
2022-07-29T17:34:44.023Z,25.86
2022-07-29T17:37:12.281Z,25.84
2022-07-29T17:39:44.785Z,25.90
2022-07-29T17:42:17.352Z,25.93
2022-07-29T17:44:44.510Z,25.70
2022-07-29T17:47:15.944Z,25.66
2022-07-29T17:49:44.906Z,25.57
2022-07-29T17:52:12.332Z,25.64
2022-07-29T17:54:39.428Z,25.65
2022-07-29T17:57:06.825Z,25.73
2022-07-29T17:59:34.553Z,25.80
2022-07-29T18:02:03.140Z,25.78
2022-07-29T18:04:31.369Z,25.62
2022-07-29T18:06:58.726Z,25.54
2022-07-29T18:09:26.356Z,25.34
2022-07-29T18:11:53.726Z,25.27
2022-07-29T18:14:21.052Z,25.29
2022-07-29T18:16:48.520Z,25.21
2022-07-29T18:19:16.173Z,25.15
2022-07-29T18:21:54.510Z,25.10
2022-07-29T18:24:25.444Z,25.06
2022-07-29T18:26:58.477Z,25.03
2022-07-29T18:29:28.665Z,25.01
2022-07-29T18:31:56.269Z,25.00
2022-07-29T18:34:23.609Z,24.81
2022-07-29T18:36:51.149Z,24.77
2022-07-29T18:39:20.649Z,24.67
2022-07-29T18:41:51.217Z,24.59
2022-07-29T18:44:27.265Z,24.62
2022-07-29T18:46:55.587Z,24.54
2022-07-29T18:49:22.903Z,24.46
2022-07-29T18:51:50.817Z,24.43
2022-07-29T18:54:18.437Z,24.32
2022-07-29T18:56:52.993Z,24.29
2022-07-29T18:59:23.076Z,24.29
2022-07-29T19:01:58.026Z,24.24
2022-07-29T19:04:25.614Z,24.20
2022-07-29T19:06:55.190Z,24.13
2022-07-29T19:09:27.649Z,24.12
2022-07-29T19:11:59.655Z,24.08
2022-07-29T19:14:29.168Z,24.03
2022-07-29T19:16:57.842Z,23.94
2022-07-29T19:19:25.372Z,23.87
2022-07-29T19:21:52.763Z,23.82
2022-07-29T19:24:19.926Z,23.84
2022-07-29T19:26:47.219Z,23.83
2022-07-29T19:29:23.467Z,23.80
2022-07-29T19:31:53.984Z,23.76
2022-07-29T19:34:27.782Z,23.73
2022-07-29T19:37:04.333Z,23.66
2022-07-29T19:39:35.202Z,23.66
2022-07-29T19:42:03.607Z,23.64
2022-07-29T19:44:38.148Z,23.55
2022-07-29T19:47:05.989Z,23.52
2022-07-29T19:49:37.006Z,23.45
2022-07-29T19:52:04.591Z,23.41
2022-07-29T19:54:31.912Z,23.39
2022-07-29T19:56:59.741Z,23.32
2022-07-29T19:59:28.196Z,23.26
2022-07-29T20:01:57.281Z,23.08
2022-07-29T20:04:27.346Z,23.28
2022-07-29T20:06:56.983Z,23.23
2022-07-29T20:09:24.214Z,23.12
2022-07-29T20:11:51.428Z,23.15
2022-07-29T20:14:20.041Z,23.11
2022-07-29T20:16:47.149Z,23.09
2022-07-29T20:19:14.395Z,22.97
2022-07-29T20:21:41.709Z,22.96
2022-07-29T20:24:10.242Z,22.92
2022-07-29T20:26:38.034Z,22.87
2022-07-29T20:29:05.324Z,22.76
2022-07-29T20:31:32.879Z,22.65
2022-07-29T20:34:01.392Z,22.62
2022-07-29T20:36:28.621Z,22.64
2022-07-29T20:38:56.330Z,22.49
2022-07-29T20:41:23.335Z,22.42
2022-07-29T20:43:50.619Z,22.45
2022-07-29T20:46:18.569Z,22.51
2022-07-29T20:48:53.443Z,22.47
2022-07-29T20:51:22.225Z,22.42
2022-07-29T20:53:49.481Z,22.44
2022-07-29T20:56:19.587Z,22.43
2022-07-29T20:58:46.679Z,22.37
2022-07-29T21:01:13.830Z,22.23
2022-07-29T21:03:41.216Z,22.21
2022-07-29T21:06:09.051Z,22.18
2022-07-29T21:08:36.557Z,22.07
2022-07-29T21:11:04.741Z,22.01
2022-07-29T21:13:37.779Z,21.93
2022-07-29T21:16:12.794Z,21.95
2022-07-29T21:18:46.221Z,21.90
2022-07-29T21:21:14.870Z,21.87
2022-07-29T21:23:45.830Z,21.83
2022-07-29T21:26:13.259Z,21.84
2022-07-29T21:28:40.576Z,21.82
2022-07-29T21:31:12.833Z,21.85
2022-07-29T21:33:43.001Z,21.84
2022-07-29T21:36:44.019Z,21.81
2022-07-29T21:38:58.290Z,21.83
2022-07-29T21:41:25.482Z,21.85
2022-07-29T21:44:00.242Z,21.92
2022-07-29T21:46:28.601Z,21.90
2022-07-29T21:48:55.927Z,21.82
2022-07-29T21:51:23.071Z,21.59
2022-07-29T21:53:50.470Z,21.79
2022-07-29T21:56:27.614Z,21.88
2022-07-29T21:58:57.351Z,21.89
2022-07-29T22:01:24.494Z,21.96
2022-07-29T22:03:52.939Z,21.98
2022-07-29T22:06:20.835Z,22.04
2022-07-29T22:08:47.994Z,21.96
2022-07-29T22:11:16.432Z,21.90
2022-07-29T22:13:43.408Z,21.85
2022-07-29T22:16:14.667Z,21.86
2022-07-29T22:18:44.987Z,21.89
2022-07-29T22:21:15.232Z,21.92
2022-07-29T22:23:42.446Z,21.92
2022-07-29T22:26:09.561Z,21.85
2022-07-29T22:28:36.874Z,21.88
2022-07-29T22:33:32.361Z,21.88
2022-07-29T22:35:59.613Z,21.76
2022-07-29T22:38:30.556Z,21.70
2022-07-29T22:40:58.802Z,21.77
2022-07-29T22:43:28.602Z,21.61
2022-07-29T22:45:55.889Z,21.63
2022-07-29T22:48:28.601Z,21.56
2022-07-29T22:50:55.580Z,21.53
2022-07-29T22:53:22.738Z,21.52
2022-07-29T22:55:49.901Z,21.41
2022-07-29T22:58:17.151Z,21.33
2022-07-29T23:00:44.416Z,21.26
2022-07-29T23:03:11.450Z,21.28
2022-07-29T23:05:38.604Z,21.27
2022-07-29T23:08:08.866Z,21.33
2022-07-29T23:10:35.882Z,21.35
2022-07-29T23:13:02.928Z,21.30
2022-07-29T23:15:29.950Z,21.23
2022-07-29T23:17:57.026Z,21.05
2022-07-29T23:20:24.308Z,20.82
2022-07-29T23:22:51.623Z,20.63
2022-07-29T23:25:18.878Z,20.57
2022-07-29T23:27:45.872Z,20.57
2022-07-29T23:30:13.165Z,20.47
2022-07-29T23:32:40.185Z,20.42
2022-07-29T23:35:12.812Z,20.55
2022-07-29T23:37:39.923Z,20.59
2022-07-29T23:40:12.160Z,20.73
2022-07-29T23:42:42.143Z,20.64
2022-07-29T23:45:10.233Z,20.62
2022-07-29T23:47:40.204Z,20.74
2022-07-29T23:50:09.648Z,20.66
2022-07-29T23:52:37.098Z,20.48
2022-07-29T23:55:38.146Z,20.26
2022-07-29T23:57:52.261Z,20.25
